Time;durP1;ratioP1;P1;durP2;ratioP2;P2;SDS_P1;SDS_P2;PMS_P1;PMS_P2;Temp;Humidity;BMP_temperature;BMP_pressure;BME280_temperature;BME280_humidity;BME280_pressure;Samples;Min_cycle;Max_cycle;Signal;HPM_P1;HPM_P2
2021/07/20 00:00:48;;;;;;;11.88;8.13;;;;;;;23.75;66.70;98497.84;5029968;28;20037;-69
2021/07/20 00:03:13;;;;;;;17.08;8.70;;;;;;;23.75;66.72;98490.53;5031168;28;20091;-69
2021/07/20 00:05:41;;;;;;;13.15;8.63;;;;;;;23.71;66.84;98491.34;5030838;28;20406;-68
2021/07/20 00:08:09;;;;;;;18.45;8.20;;;;;;;23.63;67.18;98490.00;5029825;28;20052;-69
2021/07/20 00:10:48;;;;;;;11.65;8.32;;;;;;;23.59;67.11;98494.31;5028364;28;20050;-68
2021/07/20 00:13:15;;;;;;;13.50;8.60;;;;;;;23.54;67.13;98505.13;5027866;28;20059;-68
2021/07/20 00:15:41;;;;;;;13.52;8.55;;;;;;;23.45;67.80;98503.25;5035030;28;20094;-69
2021/07/20 00:18:09;;;;;;;12.50;8.15;;;;;;;23.39;67.95;98510.53;5027532;28;20037;-68
2021/07/20 00:20:35;;;;;;;12.95;8.77;;;;;;;23.38;68.13;98506.19;5027106;28;20041;-70
2021/07/20 00:23:01;;;;;;;12.52;8.35;;;;;;;23.35;67.94;98505.91;5043100;28;20056;-69
2021/07/20 00:25:27;;;;;;;15.05;8.82;;;;;;;23.31;68.38;98511.03;5029193;28;20112;-69
2021/07/20 00:27:58;;;;;;;14.63;8.68;;;;;;;23.36;68.09;98511.06;5029373;28;20057;-70
2021/07/20 00:30:24;;;;;;;14.63;8.20;;;;;;;23.32;67.95;98506.44;5031066;28;20041;-69
2021/07/20 00:32:49;;;;;;;17.00;8.48;;;;;;;23.32;68.23;98514.56;5030838;28;20052;-69
2021/07/20 00:35:15;;;;;;;15.52;8.50;;;;;;;23.27;68.21;98494.53;5029980;28;20136;-69
2021/07/20 00:37:42;;;;;;;17.50;8.68;;;;;;;23.39;67.87;98515.94;5013151;28;20038;-70
2021/07/20 00:40:11;;;;;;;13.00;7.97;;;;;;;23.43;67.36;98489.13;5046229;28;20489;-69
2021/07/20 00:42:37;;;;;;;14.23;7.53;;;;;;;23.61;66.86;98502.16;5029386;28;20050;-69
2021/07/20 00:45:06;;;;;;;15.50;8.15;;;;;;;23.76;66.43;98516.56;5012586;28;20544;-69
2021/07/20 00:47:32;;;;;;;15.00;8.20;;;;;;;23.83;66.09;98510.88;5030533;28;20046;-69
2021/07/20 00:49:59;;;;;;;12.68;7.97;;;;;;;23.87;65.83;98492.97;5029561;28;20049;-70
2021/07/20 00:52:25;;;;;;;14.50;8.05;;;;;;;24.02;65.24;98506.56;5046307;28;20147;-69
2021/07/20 00:54:53;;;;;;;15.70;8.02;;;;;;;24.09;64.53;98501.69;5030568;28;20045;-69
2021/07/20 00:57:19;;;;;;;16.00;7.80;;;;;;;24.15;64.33;98501.41;5029450;28;20053;-69
2021/07/20 00:59:46;;;;;;;16.90;8.13;;;;;;;24.14;63.80;98497.06;5012825;28;20521;-70
2021/07/20 01:02:13;;;;;;;17.98;7.60;;;;;;;24.18;64.18;98505.47;5012841;28;20045;-70
2021/07/20 01:04:39;;;;;;;16.58;8.02;;;;;;;24.20;63.52;98497.88;5023334;28;20026;-70
2021/07/20 01:07:06;;;;;;;16.67;7.68;;;;;;;24.27;63.34;98501.13;5027104;28;20095;-69
2021/07/20 01:09:34;;;;;;;16.15;7.72;;;;;;;24.27;62.48;98491.09;5012979;28;20045;-69
2021/07/20 01:12:00;;;;;;;14.57;7.45;;;;;;;24.32;62.50;98492.97;5012992;28;20091;-71
2021/07/20 01:14:27;;;;;;;20.65;8.18;;;;;;;24.36;62.13;98492.16;5029509;28;20061;-69
2021/07/20 01:16:56;;;;;;;14.70;7.68;;;;;;;24.36;61.79;98485.91;5012620;28;20569;-69
2021/07/20 01:19:23;;;;;;;14.88;7.90;;;;;;;24.40;61.76;98484.28;5012940;28;20505;-69
2021/07/20 01:21:51;;;;;;;17.60;8.20;;;;;;;24.40;61.49;98487.00;5028974;28;20041;-70
2021/07/20 01:24:18;;;;;;;13.55;7.55;;;;;;;24.39;61.24;98480.75;5030165;28;20127;-70
2021/07/20 01:26:47;;;;;;;13.55;8.15;;;;;;;24.38;61.10;98487.28;5029416;28;20579;-69
2021/07/20 01:29:13;;;;;;;14.40;8.60;;;;;;;24.35;61.33;98468.00;5012183;28;20144;-70
2021/07/20 01:31:42;;;;;;;14.35;8.15;;;;;;;24.31;61.31;98467.72;5029230;28;20048;-68
2021/07/20 01:34:12;;;;;;;17.95;8.60;;;;;;;24.37;60.82;98463.91;5045467;28;20525;-68
2021/07/20 01:36:46;;;;;;;18.08;7.95;;;;;;;24.37;60.74;98473.97;5045668;28;20045;-68
2021/07/20 01:39:16;;;;;;;14.73;7.95;;;;;;;24.35;60.64;98479.69;5029063;28;20517;-69
2021/07/20 01:41:42;;;;;;;15.85;8.27;;;;;;;24.24;60.77;98460.97;5028970;28;20053;-69
2021/07/20 01:44:13;;;;;;;13.00;8.40;;;;;;;24.28;60.85;98478.34;5028962;28;20111;-68
2021/07/20 01:46:45;;;;;;;16.67;8.30;;;;;;;24.15;60.91;98478.88;4997429;28;20072;-70
2021/07/20 01:49:13;;;;;;;16.30;8.57;;;;;;;24.08;61.06;98481.88;5028618;28;20096;-70
2021/07/20 01:51:42;;;;;;;15.13;7.75;;;;;;;24.05;61.66;98482.41;5029338;28;20133;-69
2021/07/20 01:54:09;;;;;;;14.43;7.68;;;;;;;24.00;61.27;98482.41;5045045;28;20045;-69
2021/07/20 01:56:36;;;;;;;16.15;8.30;;;;;;;24.05;61.90;98484.34;5045077;28;20041;-69
2021/07/20 01:59:03;;;;;;;16.23;8.25;;;;;;;24.03;61.41;98486.50;5014239;28;20138;-71
2021/07/20 02:02:08;;;;;;;14.93;8.30;;;;;;;24.01;61.68;98483.22;5036496;28;20057;-69
2021/07/20 02:08:22;;;;;;;18.52;7.57;;;;;;;23.92;61.51;98488.38;5018152;28;20053;-68
2021/07/20 02:10:34;;;;;;;21.13;8.70;;;;;;;23.77;61.91;98482.13;5012559;28;20433;-71
2021/07/20 02:13:14;;;;;;;12.15;8.20;;;;;;;23.69;62.38;98491.63;5017013;28;20053;-68
2021/07/20 02:16:00;;;;;;;17.52;8.00;;;;;;;23.74;62.66;98485.38;5019185;28;20061;-67
2021/07/20 02:18:43;;;;;;;11.43;8.18;;;;;;;23.75;62.18;98484.28;5026828;28;20045;-70
2021/07/20 02:21:15;;;;;;;16.45;8.15;;;;;;;23.89;61.50;98488.09;5048631;28;20136;-69
2021/07/20 02:23:51;;;;;;;15.73;7.90;;;;;;;23.91;60.80;98469.66;5032874;28;20132;-69
2021/07/20 02:26:20;;;;;;;14.65;8.20;;;;;;;24.07;60.99;98487.56;5015699;28;20448;-69
2021/07/20 02:28:50;;;;;;;11.70;7.82;;;;;;;24.09;60.29;98491.66;4999318;28;20053;-69
2021/07/20 02:31:18;;;;;;;17.88;8.38;;;;;;;24.15;60.57;98497.88;5031824;28;20048;-70
2021/07/20 02:33:46;;;;;;;11.80;8.07;;;;;;;24.19;59.63;98490.81;5031112;28;20120;-70
2021/07/20 02:36:13;;;;;;;14.90;7.78;;;;;;;24.28;59.68;98508.97;5014323;28;20045;-70
2021/07/20 02:38:40;;;;;;;17.55;8.55;;;;;;;24.35;59.43;98503.28;5031276;28;20075;-70
2021/07/20 02:41:09;;;;;;;;;;;;;;;24.38;59.34;98505.44;5031081;28;20484;-70
2021/07/20 02:43:38;;;;;;;11.95;7.50;;;;;;;24.45;58.92;98497.81;5014547;28;19920;-71
2021/07/20 02:46:08;;;;;;;9.80;7.25;;;;;;;24.53;58.71;98502.69;4999053;28;20045;-70
2021/07/20 02:48:36;;;;;;;15.98;7.93;;;;;;;24.46;58.49;98477.75;4999257;28;20048;-69
2021/07/20 02:51:03;;;;;;;18.98;8.20;;;;;;;24.51;57.98;98481.25;5015155;28;20049;-70
2021/07/20 02:53:40;;;;;;;11.93;7.50;;;;;;;24.68;57.96;98487.22;5048105;28;20042;-70
2021/07/20 02:56:09;;;;;;;14.05;7.88;;;;;;;24.80;57.20;98493.16;5047560;28;20148;-70
2021/07/20 02:58:43;;;;;;;13.95;8.25;;;;;;;24.93;55.98;98491.75;5015690;28;20068;-70
2021/07/20 03:01:13;;;;;;;14.60;7.85;;;;;;;25.00;56.12;98497.72;5015139;28;20057;-69
2021/07/20 03:03:39;;;;;;;13.18;7.40;;;;;;;25.03;55.86;98489.00;4997354;28;20053;-70
2021/07/20 03:06:09;;;;;;;12.23;8.23;;;;;;;25.05;56.14;98494.94;5012423;28;20071;-71
2021/07/20 03:08:36;;;;;;;15.43;8.55;;;;;;;25.06;56.58;98496.59;5012193;28;20060;-69
2021/07/20 03:11:15;;;;;;;12.43;8.15;;;;;;;24.88;56.14;98463.81;5013883;28;20416;-70
2021/07/20 03:13:46;;;;;;;11.93;8.35;;;;;;;25.13;55.26;98501.69;5012437;28;20041;-70
2021/07/20 03:16:12;;;;;;;10.18;8.00;;;;;;;25.13;55.32;98499.81;5045446;28;20106;-70
2021/07/20 03:18:40;;;;;;;12.20;7.95;;;;;;;25.14;55.36;98500.63;5012481;28;20080;-70
2021/07/20 03:21:06;;;;;;;10.57;7.93;;;;;;;25.14;54.92;98506.06;5014089;28;20045;-70
2021/07/20 03:23:34;;;;;;;14.38;8.27;;;;;;;25.14;54.63;98497.91;5014593;28;20130;-69
2021/07/20 03:26:02;;;;;;;10.57;7.72;;;;;;;25.02;54.62;98492.00;4997922;28;20034;-69
2021/07/20 03:28:29;;;;;;;13.02;7.80;;;;;;;25.16;55.13;98501.13;5021738;28;20132;-69
2021/07/20 03:30:56;;;;;;;15.98;9.00;;;;;;;25.25;54.59;98503.00;5014146;28;20061;-69
2021/07/20 03:33:24;;;;;;;17.83;8.32;;;;;;;25.29;54.25;98498.66;5014118;28;20111;-69
2021/07/20 03:35:57;;;;;;;17.73;9.30;;;;;;;25.29;54.23;98498.66;5030583;28;20053;-69
2021/07/20 03:38:24;;;;;;;16.48;8.60;;;;;;;25.32;53.84;98497.25;5013955;28;20041;-69
2021/07/20 03:40:58;;;;;;;15.82;8.10;;;;;;;25.34;54.20;98506.78;5031528;28;20045;-69
2021/07/20 03:43:26;;;;;;;11.73;8.30;;;;;;;25.29;54.15;98512.25;5030907;28;20051;-68
2021/07/20 03:45:55;;;;;;;14.32;9.00;;;;;;;25.25;53.66;98503.00;5030212;28;20041;-69
2021/07/20 03:48:22;;;;;;;13.63;8.15;;;;;;;25.32;53.43;98513.56;4997582;28;20045;-69
2021/07/20 03:51:00;;;;;;;14.20;8.85;;;;;;;25.23;53.14;98498.94;5030071;28;20037;-69
2021/07/20 03:53:27;;;;;;;20.83;8.30;;;;;;;25.07;54.47;98500.09;5030181;28;20049;-70
2021/07/20 03:56:00;;;;;;;13.82;8.80;;;;;;;24.89;55.46;98515.13;5029903;28;20048;-70
2021/07/20 03:58:29;;;;;;;14.25;9.20;;;;;;;24.75;55.62;98520.34;4998272;28;20052;-69
2021/07/20 04:00:59;;;;;;;19.58;8.32;;;;;;;24.50;56.55;98527.69;5045986;28;20128;-69
2021/07/20 04:03:26;;;;;;;12.93;8.73;;;;;;;24.32;57.07;98530.97;4997192;28;20049;-68
2021/07/20 04:06:07;;;;;;;18.42;9.25;;;;;;;24.27;57.31;98526.38;5000446;28;20524;-68
2021/07/20 04:08:38;;;;;;;11.23;8.75;;;;;;;24.18;58.04;98529.88;5029886;28;20045;-69
2021/07/20 04:11:05;;;;;;;14.25;9.13;;;;;;;24.07;57.88;98512.81;5029613;28;20108;-67
2021/07/20 04:13:40;;;;;;;19.10;8.98;;;;;;;24.03;58.19;98527.19;5014959;28;20053;-69
2021/07/20 04:16:18;;;;;;;16.23;9.02;;;;;;;23.72;59.09;98510.06;4999959;28;20520;-66
2021/07/20 04:18:44;;;;;;;14.70;9.10;;;;;;;23.63;58.79;98511.69;5013192;28;20049;-67
2021/07/20 04:21:18;;;;;;;14.90;9.23;;;;;;;23.65;59.05;98536.59;5013291;28;20045;-67
2021/07/20 04:23:44;;;;;;;15.20;8.88;;;;;;;23.59;59.02;98531.47;5029182;28;20497;-67
2021/07/20 04:26:23;;;;;;;15.63;8.60;;;;;;;23.57;59.31;98530.91;5014370;28;20037;-67
2021/07/20 04:28:49;;;;;;;19.52;8.75;;;;;;;23.59;58.87;98542.31;5030643;28;20084;-66
2021/07/20 04:31:20;;;;;;;18.98;9.20;;;;;;;23.64;58.61;98548.53;5011640;28;20037;-67
2021/07/20 04:33:49;;;;;;;12.30;8.07;;;;;;;23.68;57.60;98548.81;5011437;28;20091;-68
2021/07/20 04:36:34;;;;;;;11.98;8.88;;;;;;;23.72;57.38;98550.72;5033946;28;20127;-67
2021/07/20 04:39:36;;;;;;;13.02;8.75;;;;;;;23.76;57.17;98551.81;5014702;28;20044;-67
2021/07/20 04:42:04;;;;;;;15.50;9.15;;;;;;;23.81;57.33;98549.09;5048619;28;20067;-67
2021/07/20 04:44:30;;;;;;;13.98;8.85;;;;;;;23.90;56.84;98555.63;4998781;28;20048;-69
2021/07/20 04:47:15;;;;;;;13.88;8.10;;;;;;;24.06;56.66;98554.59;5034172;28;20040;-69
2021/07/20 04:49:45;;;;;;;20.58;9.45;;;;;;;24.22;56.02;98560.81;5016805;28;20055;-70
2021/07/20 04:52:13;;;;;;;12.25;7.95;;;;;;;24.36;55.27;98556.47;4999641;28;20060;-70
2021/07/20 04:54:40;;;;;;;12.63;8.27;;;;;;;24.46;54.55;98564.63;5032213;28;20053;-69
2021/07/20 04:57:06;;;;;;;11.85;7.80;;;;;;;24.56;53.84;98561.88;5015896;28;20144;-70
2021/07/20 04:59:34;;;;;;;13.07;7.70;;;;;;;24.66;53.92;98559.97;4999438;28;20091;-69
2021/07/20 05:02:01;;;;;;;15.23;8.57;;;;;;;24.75;53.54;98562.97;5015566;28;20044;-68
2021/07/20 05:04:36;;;;;;;13.00;7.80;;;;;;;24.80;53.21;98560.25;5001271;28;20040;-68
2021/07/20 05:07:03;;;;;;;16.30;8.35;;;;;;;24.83;53.48;98559.69;5046044;28;20504;-68
2021/07/20 05:09:31;;;;;;;14.95;7.70;;;;;;;24.83;53.14;98563.22;5013607;28;20099;-69
2021/07/20 05:11:57;;;;;;;17.02;7.93;;;;;;;24.87;52.49;98568.91;5046310;28;20463;-69
2021/07/20 05:14:23;;;;;;;16.60;7.43;;;;;;;24.90;52.91;98571.06;4996980;28;20045;-69
2021/07/20 05:16:51;;;;;;;11.60;7.55;;;;;;;24.89;52.48;98572.97;4997331;28;20041;-70
2021/07/20 05:19:19;;;;;;;15.43;7.72;;;;;;;24.95;52.60;98581.09;5013618;28;20080;-75
2021/07/20 05:21:54;;;;;;;14.45;7.53;;;;;;;25.01;52.50;98574.56;5000509;28;20041;-68
2021/07/20 05:24:25;;;;;;;16.23;7.35;;;;;;;25.06;52.38;98572.66;5032488;28;20056;-68
2021/07/20 05:27:00;;;;;;;16.42;8.07;;;;;;;25.04;52.05;98552.28;5017434;28;20099;-68
2021/07/20 05:29:26;;;;;;;12.38;7.75;;;;;;;25.17;52.66;98576.16;5048061;28;20127;-68
2021/07/20 05:31:59;;;;;;;15.85;7.80;;;;;;;25.20;52.87;98575.59;5017913;28;20148;-68
2021/07/20 05:34:27;;;;;;;16.13;7.57;;;;;;;25.18;53.45;98570.44;5019235;28;20055;-76
2021/07/20 05:36:53;;;;;;;13.25;7.93;;;;;;;25.21;53.10;98571.78;5051876;28;20120;-70
2021/07/20 05:39:20;;;;;;;14.23;7.75;;;;;;;25.15;53.81;98581.88;5018866;28;20492;-68
2021/07/20 05:42:04;;;;;;;22.75;8.60;;;;;;;25.15;54.08;98579.16;5020447;28;20045;-69
2021/07/20 05:44:35;;;;;;;12.63;7.90;;;;;;;25.23;53.10;98584.03;5036245;28;20138;-68
2021/07/20 05:47:01;;;;;;;17.02;8.25;;;;;;;25.27;52.89;98576.94;5018875;28;20083;-66
2021/07/20 05:49:27;;;;;;;10.38;8.07;;;;;;;25.32;52.64;98584.25;5013022;28;20416;-71
2021/07/20 05:51:53;;;;;;;15.15;8.15;;;;;;;25.26;52.16;98569.06;5048595;28;20405;-69
2021/07/20 05:54:23;;;;;;;20.00;8.27;;;;;;;25.42;52.11;98586.94;5035388;28;20083;-68
2021/07/20 05:57:11;;;;;;;14.55;8.50;;;;;;;25.38;51.63;98566.84;5037646;28;20143;-70
2021/07/20 05:59:43;;;;;;;14.73;7.95;;;;;;;25.50;51.13;98580.91;5035448;28;20109;-69
2021/07/20 06:02:16;;;;;;;16.10;8.38;;;;;;;25.58;51.16;98583.88;5019381;28;20033;-69
2021/07/20 06:04:43;;;;;;;13.82;8.52;;;;;;;25.68;51.03;98585.75;5035241;28;20496;-70
2021/07/20 06:07:09;;;;;;;12.05;8.20;;;;;;;25.69;50.23;98576.47;5051408;28;20128;-69
2021/07/20 06:09:35;;;;;;;13.13;7.65;;;;;;;25.84;49.66;98582.66;5051235;28;20594;-70
2021/07/20 06:12:04;;;;;;;20.08;8.43;;;;;;;25.88;49.53;98583.69;5034830;28;20102;-69
2021/07/20 06:14:30;;;;;;;11.27;8.02;;;;;;;26.02;48.83;98587.44;5052443;28;20087;-69
2021/07/20 06:16:56;;;;;;;16.98;8.95;;;;;;;26.12;47.97;98592.81;5018179;28;20045;-69
2021/07/20 06:19:22;;;;;;;13.70;8.10;;;;;;;26.21;48.56;98591.13;5018052;28;20044;-69
2021/07/20 06:21:49;;;;;;;15.75;7.97;;;;;;;26.28;47.49;98588.88;5017730;28;20059;-69
2021/07/20 06:24:24;;;;;;;11.48;7.63;;;;;;;26.40;46.48;98593.97;5051122;28;20045;-68
2021/07/20 06:26:50;;;;;;;11.85;7.68;;;;;;;26.45;46.18;98602.06;5051117;28;20049;-69
2021/07/20 06:29:17;;;;;;;13.93;6.88;;;;;;;26.55;44.89;98602.00;5050770;28;20048;-68
2021/07/20 06:31:44;;;;;;;10.90;7.82;;;;;;;26.69;43.93;98603.00;5018308;28;20048;-68
2021/07/20 06:34:13;;;;;;;13.20;8.20;;;;;;;26.80;43.44;98598.25;5048766;28;20079;-69
2021/07/20 06:36:39;;;;;;;13.50;8.10;;;;;;;26.91;43.45;98603.31;5051795;28;20056;-68
2021/07/20 06:39:05;;;;;;;9.90;7.82;;;;;;;27.02;43.07;98598.56;5033776;28;20037;-68
2021/07/20 06:41:35;;;;;;;15.02;7.47;;;;;;;27.05;42.02;98595.25;5027258;28;20053;-69
2021/07/20 06:44:02;;;;;;;14.75;6.97;;;;;;;27.10;40.25;98596.03;5008523;28;20143;-68
2021/07/20 06:46:29;;;;;;;10.43;6.78;;;;;;;27.11;40.90;98605.03;5032844;28;20045;-71
2021/07/20 06:48:55;;;;;;;9.20;6.95;;;;;;;27.12;40.65;98598.47;5012967;28;20033;-73
2021/07/20 06:51:22;;;;;;;10.30;6.65;;;;;;;27.20;39.60;98603.28;5022916;28;20430;-70
2021/07/20 06:53:50;;;;;;;11.07;6.88;;;;;;;27.23;39.22;98595.31;5038263;28;20052;-73
2021/07/20 06:56:28;;;;;;;10.25;6.75;;;;;;;27.35;39.12;98605.84;5040673;28;20088;-72
2021/07/20 06:58:54;;;;;;;11.25;6.78;;;;;;;27.41;39.27;98594.59;5041198;28;20038;-71
2021/07/20 07:01:21;;;;;;;12.38;6.57;;;;;;;27.53;39.09;98600.44;5007268;28;20083;-71
2021/07/20 07:03:56;;;;;;;11.07;6.28;;;;;;;27.65;38.30;98600.81;5038790;28;20046;-73
2021/07/20 07:06:24;;;;;;;14.18;7.40;;;;;;;27.77;38.37;98584.81;5020305;28;20030;-72
2021/07/20 07:08:50;;;;;;;11.35;6.25;;;;;;;27.94;37.95;98567.94;5039513;28;20033;-71
2021/07/20 07:11:16;;;;;;;11.80;6.15;;;;;;;28.27;37.23;98605.13;5043093;28;20049;-72
2021/07/20 07:13:43;;;;;;;14.13;6.65;;;;;;;28.53;36.51;98600.06;5017910;28;20047;-71
2021/07/20 07:16:09;;;;;;;10.50;6.40;;;;;;;28.77;34.79;98596.09;5000962;28;20069;-73
2021/07/20 07:18:36;;;;;;;10.48;6.00;;;;;;;29.08;34.32;98596.38;5023885;28;20524;-74
2021/07/20 07:21:02;;;;;;;7.72;5.25;;;;;;;29.48;32.72;98592.81;4989025;28;20041;-74
2021/07/20 07:23:29;;;;;;;13.70;5.63;;;;;;;29.80;32.81;98578.22;5028756;28;20045;-73
2021/07/20 07:25:58;;;;;;;9.50;5.53;;;;;;;30.23;32.15;98595.84;5039055;28;20041;-74
2021/07/20 07:28:24;;;;;;;11.00;7.93;;;;;;;30.81;31.69;98605.63;5038019;28;20069;-73
2021/07/20 07:30:51;;;;;;;11.60;5.60;;;;;;;31.50;29.72;98586.72;5030988;28;20398;-71
2021/07/20 07:33:17;;;;;;;9.40;5.07;;;;;;;32.48;28.20;98597.69;5023879;28;20045;-70
2021/07/20 07:35:44;;;;;;;15.73;5.18;;;;;;;33.43;25.97;98588.00;5024295;28;20045;-70
2021/07/20 07:38:10;;;;;;;8.27;4.85;;;;;;;34.80;23.50;98596.03;5038104;28;20511;-71
2021/07/20 07:40:36;;;;;;;10.98;4.53;;;;;;;36.24;21.44;98598.03;5014080;28;20140;-72
2021/07/20 07:43:04;;;;;;;9.88;4.25;;;;;;;37.84;19.10;98602.72;5035081;28;20073;-72
2021/07/20 07:45:30;;;;;;;10.90;4.43;;;;;;;39.54;17.77;98582.69;5037360;28;20043;-72
2021/07/20 07:47:56;;;;;;;8.35;4.15;;;;;;;41.42;15.60;98577.88;5021255;28;20033;-72
2021/07/20 07:50:22;;;;;;;5.22;3.95;;;;;;;43.14;14.18;98597.47;4996180;28;20041;-73
2021/07/20 07:52:48;;;;;;;12.90;4.13;;;;;;;44.71;12.58;98598.41;5003672;28;20049;-73
2021/07/20 07:55:16;;;;;;;9.32;3.88;;;;;;;45.81;11.02;98604.81;5029005;28;20472;-72
2021/07/20 07:57:43;;;;;;;13.35;3.70;;;;;;;46.69;9.92;98598.16;5039380;28;20207;-72
2021/07/20 08:00:09;;;;;;;9.95;3.67;;;;;;;47.47;9.24;98596.56;5020769;28;20041;-72
2021/07/20 08:02:43;;;;;;;10.98;3.85;;;;;;;48.23;8.98;98606.06;5038442;28;20416;-73
2021/07/20 08:05:10;;;;;;;9.98;4.90;;;;;;;48.65;8.49;98593.94;5020820;28;20567;-73
2021/07/20 08:07:37;;;;;;;6.95;3.67;;;;;;;49.01;8.25;98603.19;5038376;28;20037;-72
2021/07/20 08:10:03;;;;;;;7.47;4.13;;;;;;;49.30;7.71;98592.84;5039171;28;20588;-72
2021/07/20 08:12:30;;;;;;;12.05;4.47;;;;;;;49.55;7.27;98593.00;5021362;28;20080;-72
2021/07/20 08:14:55;;;;;;;18.15;4.22;;;;;;;49.60;7.25;98594.50;5023362;28;20067;-71
2021/07/20 08:17:23;;;;;;;13.43;3.65;;;;;;;49.70;7.45;98593.47;5037316;28;20045;-72
2021/07/20 08:19:49;;;;;;;6.00;3.20;;;;;;;49.92;7.18;98592.41;5003981;28;20448;-72
2021/07/20 08:22:17;;;;;;;6.18;3.13;;;;;;;49.85;6.91;98589.81;5013202;28;20045;-73
2021/07/20 08:25:01;;;;;;;7.30;3.17;;;;;;;49.99;6.85;98580.13;5023633;28;20045;-72
2021/07/20 08:27:50;;;;;;;12.02;2.90;;;;;;;50.25;7.01;98582.63;5038855;28;20044;-72
2021/07/20 08:30:18;;;;;;;6.97;2.97;;;;;;;50.45;6.23;98583.28;5028340;28;20516;-72
2021/07/20 08:32:51;;;;;;;7.22;2.63;;;;;;;50.36;6.19;98579.53;5023144;28;20079;-72
2021/07/20 08:35:21;;;;;;;7.20;3.10;;;;;;;50.54;5.89;98579.78;5023182;28;20085;-71
2021/07/20 08:37:48;;;;;;;5.90;2.78;;;;;;;50.68;5.83;98558.75;5014338;28;20037;-73
2021/07/20 08:40:28;;;;;;;5.70;2.80;;;;;;;51.13;5.76;98585.63;5027631;28;20034;-72
2021/07/20 08:43:19;;;;;;;6.00;2.78;;;;;;;50.87;5.86;98580.38;5038459;28;20128;-71
2021/07/20 08:46:12;;;;;;;5.38;2.88;;;;;;;50.83;6.03;98571.22;5027678;28;20041;-73
2021/07/20 08:48:37;;;;;;;4.85;2.55;;;;;;;49.85;7.05;98575.69;5021422;28;20049;-72
2021/07/20 08:51:06;;;;;;;5.32;2.85;;;;;;;49.63;6.63;98566.16;5022378;28;20076;-73
2021/07/20 08:53:53;;;;;;;4.57;2.92;;;;;;;50.01;6.05;98574.88;5021587;28;20476;-71
2021/07/20 08:56:22;;;;;;;4.00;3.00;;;;;;;50.59;6.00;98573.56;5027684;28;20467;-72
2021/07/20 08:58:54;;;;;;;;;;;;;;;51.26;5.44;98579.91;5020136;28;20059;-72
2021/07/20 09:01:27;;;;;;;9.88;2.67;;;;;;;51.65;5.05;98568.06;5037086;28;19935;-72
2021/07/20 09:04:18;;;;;;;5.13;2.42;;;;;;;51.40;4.94;98573.81;5021471;28;20041;-73
2021/07/20 09:06:49;;;;;;;4.05;2.60;;;;;;;51.26;5.20;98577.88;5025833;28;20040;-72
2021/07/20 09:09:18;;;;;;;5.68;3.00;;;;;;;51.03;5.84;98580.28;5010761;28;20047;-72
2021/07/20 09:11:55;;;;;;;4.32;2.88;;;;;;;51.58;4.35;98580.44;5029720;28;20036;-72
2021/07/20 09:14:42;;;;;;;7.63;2.35;;;;;;;52.21;4.92;98577.38;5016981;28;20128;-72
2021/07/20 09:17:17;;;;;;;8.60;2.50;;;;;;;52.76;4.23;98575.72;5039716;28;20599;-72
2021/07/20 09:19:58;;;;;;;6.05;2.78;;;;;;;53.49;4.31;98585.31;5011954;28;20114;-72
2021/07/20 09:22:38;;;;;;;4.05;2.78;;;;;;;53.93;3.81;98578.91;5042139;28;20048;-72
2021/07/20 09:25:34;;;;;;;7.22;2.70;;;;;;;53.71;3.82;98572.56;5011302;28;20048;-72
2021/07/20 09:28:02;;;;;;;7.03;2.40;;;;;;;53.41;4.60;98571.38;5042989;28;20600;-71
2021/07/20 09:30:36;;;;;;;4.90;2.40;;;;;;;53.28;4.14;98565.06;5041590;28;20549;-72
2021/07/20 09:33:22;;;;;;;3.85;2.70;;;;;;;53.31;4.60;98572.66;5040138;28;20515;-73
2021/07/20 09:36:14;;;;;;;6.30;2.60;;;;;;;53.88;4.36;98562.44;5044987;28;20053;-72
2021/07/20 09:38:55;;;;;;;8.88;2.95;;;;;;;53.61;4.52;98561.66;5041882;28;20782;-72
2021/07/20 09:41:46;;;;;;;7.65;2.75;;;;;;;52.46;4.57;98563.09;5030765;28;20041;-71
2021/07/20 09:44:30;;;;;;;4.60;2.55;;;;;;;51.77;5.13;98553.91;5030699;28;20527;-72
2021/07/20 09:47:18;;;;;;;5.90;2.70;;;;;;;51.48;5.46;98550.47;5024296;28;20141;-71
2021/07/20 09:49:53;;;;;;;4.38;2.85;;;;;;;50.92;5.58;98548.72;5042620;28;20049;-72
2021/07/20 09:52:37;;;;;;;7.60;2.72;;;;;;;51.65;5.22;98548.25;5010070;28;20096;-72
2021/07/20 09:55:20;;;;;;;5.22;2.40;;;;;;;52.20;5.37;98549.50;5025282;28;20044;-72
2021/07/20 09:57:50;;;;;;;12.85;3.08;;;;;;;52.19;5.22;98548.72;5027604;28;20045;-72
2021/07/20 10:00:21;;;;;;;5.28;2.70;;;;;;;50.80;6.41;98543.81;5040445;28;20037;-71
2021/07/20 10:02:46;;;;;;;5.97;2.80;;;;;;;49.16;7.03;98533.94;5039388;28;20076;-72
2021/07/20 10:05:20;;;;;;;5.53;2.75;;;;;;;48.83;7.49;98538.72;5025899;28;20080;-74
2021/07/20 10:07:54;;;;;;;6.72;2.90;;;;;;;49.03;7.29;98547.94;5030837;28;20505;-73
2021/07/20 10:10:30;;;;;;;10.77;3.13;;;;;;;49.37;6.67;98533.41;5025850;28;20490;-71
2021/07/20 10:13:40;;;;;;;5.25;2.80;;;;;;;49.72;6.53;98540.13;5014079;28;20039;-71
2021/07/20 10:16:26;;;;;;;5.15;3.40;;;;;;;49.47;7.04;98531.53;5031418;28;20413;-71
2021/07/20 10:19:05;;;;;;;4.55;3.20;;;;;;;49.19;7.31;98540.72;5011132;28;20049;-71
2021/07/20 10:21:35;;;;;;;11.15;3.53;;;;;;;49.67;7.16;98541.47;5018054;28;20580;-72
2021/07/20 10:24:14;;;;;;;8.80;3.20;;;;;;;49.64;6.84;98533.88;5025327;28;20136;-72
2021/07/20 10:27:06;;;;;;;7.75;3.00;;;;;;;49.51;6.78;98535.84;5024936;28;20111;-72
2021/07/20 10:29:39;;;;;;;3.85;2.65;;;;;;;49.84;6.79;98534.53;5022809;28;20140;-72
2021/07/20 10:32:38;;;;;;;5.25;2.83;;;;;;;49.76;6.53;98541.66;5008096;28;20516;-69
2021/07/20 10:35:10;;;;;;;5.05;2.80;;;;;;;49.41;6.46;98538.97;5024053;28;20041;-71
2021/07/20 10:37:39;;;;;;;8.45;2.92;;;;;;;49.57;6.37;98539.72;5007823;28;20046;-70
2021/07/20 10:40:09;;;;;;;8.23;3.40;;;;;;;49.18;6.50;98531.44;5008036;28;20136;-72
2021/07/20 10:42:41;;;;;;;7.25;2.70;;;;;;;49.18;6.27;98530.66;5039643;28;20426;-72
2021/07/20 10:45:09;;;;;;;3.72;2.80;;;;;;;49.58;6.23;98524.34;5038339;28;20041;-72
2021/07/20 10:47:39;;;;;;;4.27;2.57;;;;;;;48.82;6.67;98525.06;5023160;28;20440;-72
2021/07/20 10:50:15;;;;;;;4.70;2.72;;;;;;;48.80;6.79;98525.50;5040593;28;20140;-72
2021/07/20 10:52:55;;;;;;;6.63;2.80;;;;;;;49.08;6.57;98522.03;5009652;28;20512;-72
2021/07/20 10:55:49;;;;;;;9.45;2.75;;;;;;;49.32;6.23;98528.28;5009403;28;20040;-71
2021/07/20 10:58:39;;;;;;;3.90;2.45;;;;;;;49.04;6.53;98520.53;5032668;28;20049;-71
2021/07/20 11:01:22;;;;;;;4.60;2.47;;;;;;;48.29;6.70;98525.47;5049690;28;20041;-74
2021/07/20 11:04:06;;;;;;;4.78;2.40;;;;;;;46.40;7.67;98523.88;5001306;28;20045;-74
2021/07/20 11:06:34;;;;;;;7.07;2.60;;;;;;;45.43;7.95;98518.97;5033642;28;20501;-73
2021/07/20 11:09:04;;;;;;;6.43;2.40;;;;;;;45.86;7.89;98503.28;5017297;28;20036;-74
2021/07/20 11:11:39;;;;;;;4.18;2.40;;;;;;;45.93;7.93;98511.66;5037276;28;20045;-75
2021/07/20 11:14:05;;;;;;;6.78;2.60;;;;;;;44.62;8.83;98497.97;5018026;28;20041;-74
2021/07/20 11:16:32;;;;;;;5.10;2.65;;;;;;;43.11;9.86;98506.03;5050421;28;20501;-74
2021/07/20 11:18:59;;;;;;;4.32;2.30;;;;;;;41.61;11.02;98505.13;5033646;28;20063;-74
2021/07/20 11:21:28;;;;;;;4.20;2.30;;;;;;;40.90;11.31;98505.75;5050272;28;20412;-71
2021/07/20 11:23:54;;;;;;;6.03;2.17;;;;;;;39.81;11.82;98498.88;5033271;28;20048;-74
2021/07/20 11:26:21;;;;;;;5.43;2.53;;;;;;;37.68;14.08;98504.13;5016792;28;20534;-74
2021/07/20 11:28:47;;;;;;;4.60;2.47;;;;;;;36.83;15.10;98492.97;5050150;28;20134;-75
2021/07/20 11:31:42;;;;;;;9.38;3.00;;;;;;;35.96;15.98;98480.28;5033612;28;20424;-76
2021/07/20 11:34:12;;;;;;;4.70;2.67;;;;;;;35.35;17.12;98510.78;5050578;28;20045;-72
2021/07/20 11:36:42;;;;;;;5.68;2.50;;;;;;;35.12;16.80;98495.03;5050075;28;20466;-76
2021/07/20 11:39:13;;;;;;;4.65;2.35;;;;;;;34.63;17.48;98502.44;5032733;28;20049;-75
2021/07/20 11:41:49;;;;;;;10.82;2.58;;;;;;;34.15;18.25;98502.28;5017232;28;20132;-73
2021/07/20 11:44:15;;;;;;;6.45;2.90;;;;;;;33.22;19.35;98518.31;5050014;28;20069;-71
2021/07/20 11:47:16;;;;;;;4.57;2.67;;;;;;;32.97;19.81;98505.50;5033095;28;20079;-72
2021/07/20 11:49:46;;;;;;;4.40;2.40;;;;;;;33.13;19.35;98501.06;5032340;28;20512;-73
2021/07/20 11:52:34;;;;;;;5.53;2.58;;;;;;;32.33;19.34;98496.47;5029335;28;20049;-72
2021/07/20 11:55:28;;;;;;;3.53;2.40;;;;;;;32.25;19.65;98504.69;5050629;28;20546;-71